.
WxDataArchive / Data Records for 2007-10-27
2007-10-26 October 2007 2007-10-28

Data Records for Saturday, 27 October 2007

Time	Temp	Chill	HIndex	Humid	Dewpt	 Wind 	HiWind	WindDir	Rain 	Barom 
-----	----	-----	------	-----	-----	------	------	-------	-----	----- 
00:00	53.6	53.6	53.6	96	52.5	0	1	270	0.00	29.975 
00:05	53.6	53.6	53.6	96	52.5	0	1	270	0.00	29.973 
00:10	53.6	53.6	53.6	96	52.5	0	0	---	0.00	29.968 
00:15	53.6	53.6	53.6	96	52.5	0	1	270	0.01	29.971 
00:20	53.6	53.6	53.6	96	52.5	0	1	270	0.00	29.967 
00:25	53.6	53.6	53.6	96	52.5	0	1	270	0.00	29.964 
00:30	53.6	53.6	53.6	96	52.5	0	4	270	0.00	29.968 
00:35	53.5	53.5	53.5	96	52.4	0	1	248	0.00	29.968 
00:40	53.5	53.5	53.5	96	52.4	0	1	248	0.00	29.963 
00:45	53.5	53.5	53.5	96	52.4	0	3	248	0.00	29.962 
00:50	53.3	53.3	53.3	96	52.2	0	1	248	0.00	29.963 
00:55	53.3	53.3	53.3	96	52.2	0	2	248	0.00	29.961 
01:00	53.3	53.3	53.3	96	52.2	0	2	248	0.00	29.961 
01:05	53.3	53.3	53.3	96	52.2	0	3	248	0.00	29.960 
01:10	53.3	53.3	53.3	96	52.2	0	1	248	0.00	29.961 
01:15	53.3	53.3	53.3	96	52.2	0	4	270	0.00	29.961 
01:20	53.2	53.2	53.2	96	52.1	1	3	248	0.00	29.960 
01:25	53.2	53.2	53.2	96	52.1	0	5	270	0.00	29.958 
01:30	53.1	53.1	53.1	96	52.0	0	3	270	0.00	29.957 
01:35	52.9	52.9	52.9	96	51.8	0	3	248	0.00	29.955 
01:40	52.6	52.6	52.6	95	51.2	2	7	248	0.00	29.958 
01:45	52.2	52.2	52.2	95	50.8	2	7	248	0.00	29.962 
01:50	51.9	51.9	51.9	94	50.2	2	5	248	0.00	29.962 
01:55	51.6	51.6	51.6	93	49.6	2	6	248	0.00	29.963 
02:00	51.4	51.4	51.4	93	49.4	3	6	248	0.00	29.964 
02:05	51.4	51.4	51.4	93	49.4	1	4	248	0.00	29.965 
02:10	51.3	51.3	51.3	92	49.1	2	5	248	0.00	29.966 
02:15	51.1	51.1	51.1	92	48.9	1	6	248	0.00	29.968 
02:20	51.1	51.1	51.1	92	48.9	1	4	248	0.00	29.970 
02:25	51.1	51.1	51.1	92	48.9	1	7	248	0.00	29.972 
02:30	51.0	51.0	51.0	91	48.5	1	6	248	0.00	29.971 
02:35	51.0	51.0	51.0	91	48.5	1	7	292	0.00	29.970 
02:40	51.0	51.0	51.0	91	48.5	1	3	248	0.00	29.970 
02:45	51.0	51.0	51.0	91	48.5	1	4	248	0.00	29.966 
02:50	51.0	51.0	51.0	91	48.5	2	7	248	0.00	29.965 
02:55	51.0	51.0	51.0	91	48.5	1	5	248	0.00	29.965 
03:00	51.1	51.1	51.1	91	48.6	1	4	270	0.00	29.964 
03:05	51.1	51.1	51.1	91	48.6	1	5	248	0.00	29.964 
03:10	51.1	51.1	51.1	91	48.6	1	4	270	0.00	29.964 
03:15	51.1	51.1	51.1	91	48.6	1	7	248	0.00	29.964 
03:20	51.1	51.1	51.1	91	48.6	1	4	248	0.00	29.964 
03:25	51.1	51.1	51.1	91	48.6	1	4	248	0.00	29.962 
03:30	51.1	51.1	51.1	91	48.6	2	5	270	0.00	29.958 
03:35	51.3	51.3	51.3	91	48.8	1	6	225	0.00	29.956 
03:40	51.3	51.3	51.3	91	48.8	1	5	248	0.00	29.956 
03:45	51.3	51.3	51.3	91	48.8	1	4	248	0.00	29.954 
03:50	51.3	51.3	51.3	91	48.8	1	4	248	0.00	29.954 
03:55	51.3	51.3	51.3	91	48.8	1	4	248	0.00	29.953 
04:00	51.4	51.4	51.4	91	48.9	2	5	248	0.00	29.955 
04:05	51.3	51.3	51.3	91	48.8	2	7	248	0.00	29.955 
04:10	51.3	51.3	51.3	91	48.8	2	4	248	0.00	29.956 
04:15	51.3	51.3	51.3	92	49.1	2	6	248	0.00	29.957 
04:20	51.3	51.3	51.3	92	49.1	1	3	248	0.00	29.958 
04:25	51.3	51.3	51.3	92	49.1	1	3	248	0.00	29.960 
04:30	51.3	51.3	51.3	92	49.1	2	6	248	0.00	29.961 
04:35	51.3	51.3	51.3	92	49.1	3	6	248	0.00	29.960 
04:40	51.3	51.3	51.3	91	48.8	3	7	248	0.00	29.958 
04:45	51.3	51.3	51.3	91	48.8	1	3	248	0.00	29.955 
04:50	51.3	51.3	51.3	91	48.8	2	6	248	0.00	29.959 
04:55	51.3	51.3	51.3	91	48.8	2	9	248	0.00	29.961 
05:00	51.3	51.3	51.3	91	48.8	2	7	248	0.00	29.964 
05:05	51.3	51.3	51.3	91	48.8	2	6	248	0.00	29.966 
05:10	51.3	51.3	51.3	91	48.8	3	6	248	0.00	29.966 
05:15	51.3	51.3	51.3	91	48.8	2	5	248	0.00	29.960 
05:20	51.1	51.1	51.1	92	48.9	2	6	248	0.00	29.959 
05:25	51.1	51.1	51.1	92	48.9	2	5	248	0.00	29.963 
05:30	51.0	51.0	51.0	92	48.8	2	5	248	0.00	29.964 
05:35	51.0	51.0	51.0	92	48.8	1	5	248	0.00	29.964 
05:40	51.0	51.0	51.0	93	49.0	1	4	248	0.00	29.965 
05:45	51.0	51.0	51.0	93	49.0	2	6	248	0.00	29.965 
05:50	51.0	51.0	51.0	93	49.0	2	5	248	0.00	29.967 
05:55	51.0	51.0	51.0	93	49.0	2	7	248	0.00	29.967 
06:00	51.0	51.0	51.0	92	48.8	2	5	270	0.00	29.968 
06:05	51.1	51.1	51.1	92	48.9	2	7	248	0.00	29.970 
06:10	51.1	51.1	51.1	92	48.9	3	6	248	0.00	29.970 
06:15	51.3	51.3	51.3	92	49.1	3	7	248	0.00	29.969 
06:20	51.3	51.3	51.3	91	48.8	2	6	248	0.00	29.970 
06:25	51.3	51.3	51.3	91	48.8	2	5	248	0.00	29.976 
06:30	51.3	51.3	51.3	91	48.8	3	9	248	0.00	29.971 
06:35	51.3	51.3	51.3	91	48.8	3	9	248	0.00	29.971 
06:40	51.3	51.3	51.3	91	48.8	3	10	248	0.00	29.970 
06:45	51.3	51.3	51.3	92	49.1	2	6	248	0.00	29.971 
06:50	51.3	51.3	51.3	92	49.1	2	5	248	0.00	29.970 
06:55	51.1	51.1	51.1	92	48.9	4	7	248	0.00	29.973 
07:00	51.1	51.1	51.1	93	49.1	2	6	248	0.00	29.972 
07:05	51.1	51.1	51.1	93	49.1	3	7	248	0.00	29.977 
07:10	51.1	51.1	51.1	93	49.1	2	6	248	0.00	29.980 
07:15	51.1	51.1	51.1	93	49.1	2	7	248	0.00	29.980 
07:20	51.1	51.1	51.1	93	49.1	3	7	248	0.00	29.982 
07:25	51.1	51.1	51.1	93	49.1	2	11	248	0.00	29.985 
07:30	51.1	51.1	51.1	93	49.1	2	5	248	0.00	29.987 
07:35	51.1	51.1	51.1	93	49.1	3	7	248	0.00	29.989 
07:40	51.3	51.3	51.3	93	49.3	3	7	248	0.01	29.987 
07:45	51.3	51.3	51.3	93	49.3	3	6	248	0.00	29.987 
07:50	51.3	51.3	51.3	93	49.3	3	6	248	0.00	29.989 
07:55	51.3	51.3	51.3	93	49.3	3	6	248	0.00	29.989 
08:00	51.3	51.3	51.3	93	49.3	3	8	248	0.00	29.992 
08:05	51.4	51.4	51.4	93	49.4	2	6	248	0.00	29.992 
08:10	51.4	51.4	51.4	93	49.4	2	4	248	0.00	29.994 
08:15	51.4	51.4	51.4	93	49.4	2	5	248	0.00	29.999 
08:20	51.4	51.4	51.4	93	49.4	3	10	248	0.00	29.997 
08:25	51.6	51.6	51.6	93	49.6	2	5	248	0.00	29.994 
08:30	51.6	51.6	51.6	93	49.6	3	11	248	0.00	29.996 
08:35	51.6	51.6	51.6	93	49.6	2	4	248	0.00	30.000 
08:40	51.7	51.7	51.7	93	49.7	3	9	248	0.00	30.001 
08:45	51.7	51.7	51.7	93	49.7	2	7	248	0.00	30.004 
08:50	51.9	51.9	51.9	93	49.9	3	6	248	0.00	30.005 
08:55	51.9	51.9	51.9	93	49.9	3	7	270	0.00	30.005 
09:00	52.0	52.0	52.0	93	50.0	3	7	248	0.00	30.007 
09:05	52.0	52.0	52.0	93	50.0	3	6	270	0.00	30.009 
09:10	52.0	52.0	52.0	93	50.0	3	7	248	0.00	30.012 
09:15	52.0	52.0	52.0	94	50.3	2	5	248	0.00	30.019 
09:20	52.0	52.0	52.0	94	50.3	2	4	270	0.00	30.021 
09:25	52.2	52.2	52.2	94	50.5	2	6	248	0.00	30.022 
09:30	52.3	52.3	52.3	94	50.6	2	4	248	0.00	30.022 
09:35	52.3	52.3	52.3	94	50.6	2	4	248	0.00	30.025 
09:40	52.5	52.5	52.5	94	50.8	2	5	248	0.00	30.027 
09:45	52.6	52.6	52.6	93	50.6	2	5	248	0.00	30.030 
09:50	52.6	52.6	52.6	93	50.6	2	5	270	0.00	30.033 
09:55	52.8	52.8	52.8	93	50.8	1	3	248	0.00	30.034 
10:00	52.8	52.8	52.8	93	50.8	2	5	270	0.00	30.035 
10:05	52.8	52.8	52.8	93	50.8	2	7	270	0.00	30.036 
10:10	52.9	52.9	52.9	93	50.9	2	6	270	0.00	30.037 
10:15	52.9	52.9	52.9	92	50.6	2	5	248	0.00	30.037 
10:20	53.2	53.2	53.2	92	50.9	2	6	270	0.00	30.039 
10:25	53.3	53.3	53.3	91	50.7	2	5	270	0.00	30.041 
10:30	53.5	53.5	53.5	90	50.6	2	4	270	0.00	30.042 
10:35	53.6	53.6	53.6	89	50.4	2	5	270	0.00	30.045 
10:40	53.9	53.9	53.9	88	50.4	2	5	270	0.00	30.048 
10:45	54.2	54.2	54.2	88	50.7	2	6	248	0.00	30.049 
10:50	54.5	54.5	54.5	88	51.0	2	5	270	0.00	30.051 
10:55	55.0	55.0	55.0	87	51.2	2	7	270	0.00	30.051 
11:00	55.1	55.1	55.1	86	51.0	2	4	270	0.00	30.051 
11:05	55.0	55.0	55.0	84	50.3	2	5	270	0.00	30.053 
11:10	54.8	54.8	54.8	83	49.7	3	6	270	0.00	30.055 
11:15	54.8	54.8	54.8	81	49.1	4	7	292	0.00	30.058 
11:20	54.8	54.8	54.8	81	49.1	2	5	292	0.00	30.061 
11:25	55.0	55.0	55.0	80	48.9	3	5	270	0.00	30.061 
11:30	55.1	55.1	55.1	79	48.7	2	6	338	0.00	30.063 
11:35	55.3	55.3	55.3	80	49.2	2	4	315	0.00	30.065 
11:40	55.4	55.4	55.4	80	49.3	2	5	270	0.00	30.064 
11:45	55.3	55.3	55.3	79	48.9	3	5	270	0.00	30.067 
11:50	55.0	55.0	55.0	80	48.9	3	7	292	0.00	30.070 
11:55	54.8	54.8	54.8	81	49.1	2	5	248	0.00	30.075 
12:00	54.7	54.7	54.7	82	49.3	3	7	270	0.00	30.074 
12:05	54.7	54.7	54.7	83	49.6	2	4	248	0.00	30.077 
12:10	54.5	54.5	54.5	83	49.4	3	6	292	0.00	30.078 
12:15	54.5	54.5	54.5	83	49.4	3	9	270	0.00	30.084 
12:20	54.2	54.2	54.2	82	48.8	3	6	270	0.00	30.086 
12:25	53.9	53.9	53.9	82	48.5	3	6	292	0.00	30.086 
12:30	53.8	53.8	53.8	83	48.8	2	5	270	0.00	30.086 
12:35	53.8	53.8	53.8	84	49.1	2	4	315	0.00	30.086 
12:40	53.9	53.9	53.9	84	49.2	2	5	248	0.00	30.086 
12:45	54.2	54.2	54.2	83	49.1	2	4	270	0.00	30.084 
12:50	54.2	54.2	54.2	81	48.5	2	8	338	0.00	30.083 
12:55	54.1	54.1	54.1	81	48.4	3	12	270	0.00	30.086 
13:00	53.9	53.9	53.9	81	48.2	4	6	270	0.00	30.088 
13:05	53.8	53.8	53.8	81	48.1	2	10	292	0.00	30.092 
13:10	53.6	53.6	53.6	81	47.9	3	11	292	0.00	30.095 
13:15	53.5	53.5	53.5	81	47.8	2	6	315	0.00	30.099 
13:20	53.3	53.3	53.3	82	47.9	1	4	315	0.00	30.100 
13:25	53.2	53.2	53.2	83	48.2	2	5	315	0.00	30.102 
13:30	53.1	53.1	53.1	82	47.8	3	6	270	0.00	30.102 
13:35	52.9	52.9	52.9	82	47.6	3	6	315	0.00	30.103 
13:40	52.9	52.9	52.9	82	47.6	3	9	270	0.00	30.107 
13:45	52.9	52.9	52.9	83	47.9	3	7	292	0.00	30.108 
13:50	52.9	52.9	52.9	83	47.9	1	3	292	0.00	30.109 
13:55	53.2	53.2	53.2	82	47.8	2	5	270	0.00	30.107 
14:00	53.2	53.2	53.2	81	47.5	2	6	292	0.00	30.113 
14:05	52.9	52.9	52.9	81	47.2	3	7	270	0.00	30.116 
14:10	53.1	53.1	53.1	81	47.4	3	5	315	0.00	30.117 
14:15	53.2	53.2	53.2	78	46.5	2	5	315	0.00	30.119 
14:20	53.3	53.3	53.3	78	46.6	2	6	338	0.00	30.120 
14:25	53.6	53.6	53.6	76	46.2	2	6	315	0.00	30.122 
14:30	53.8	53.8	53.8	74	45.7	2	5	315	0.00	30.127 
14:35	53.8	53.8	53.8	74	45.7	3	6	315	0.00	30.127 
14:40	53.8	53.8	53.8	73	45.3	3	6	292	0.00	30.131 
14:45	53.6	53.6	53.6	73	45.2	3	6	315	0.00	30.133 
14:50	53.6	53.6	53.6	73	45.2	3	6	315	0.00	30.134 
14:55	54.1	54.1	54.1	73	45.6	2	4	292	0.00	30.134 
15:00	54.5	54.5	54.5	71	45.3	2	6	315	0.00	30.137 
15:05	54.8	54.8	54.8	72	45.9	1	3	292	0.00	30.139 
15:10	55.1	55.1	55.1	69	45.1	2	4	292	0.00	30.142 
15:15	55.3	55.3	55.3	70	45.7	2	5	315	0.00	30.145 
15:20	55.1	55.1	55.1	67	44.3	3	9	270	0.00	30.148 
15:25	55.4	55.4	55.4	66	44.2	2	6	315	0.00	30.150 
15:30	55.6	55.6	55.6	66	44.4	2	6	270	0.00	30.156 
15:35	55.1	55.1	55.1	63	42.7	2	6	315	0.00	30.163 
15:40	54.4	54.4	54.4	63	42.1	3	9	315	0.00	30.165 
15:45	53.8	53.8	53.8	64	41.9	2	5	292	0.00	30.169 
15:50	53.5	53.5	53.5	65	42.0	3	10	315	0.00	30.177 
15:55	53.2	53.2	53.2	66	42.1	2	6	292	0.00	30.180 
16:00	53.1	53.1	53.1	67	42.4	3	9	315	0.00	30.183 
16:05	52.8	52.8	52.8	68	42.5	2	6	292	0.00	30.187 
16:10	52.5	52.5	52.5	69	42.6	2	5	315	0.00	30.193 
16:15	52.3	52.3	52.3	70	42.8	2	4	292	0.00	30.198 
16:20	52.2	52.2	52.2	70	42.7	2	4	315	0.00	30.199 
16:25	52.0	52.0	52.0	70	42.5	1	5	292	0.00	30.202 
16:30	51.9	51.9	51.9	70	42.4	2	5	315	0.00	30.202 
16:35	51.9	51.9	51.9	70	42.4	3	6	292	0.00	30.203 
16:40	51.9	51.9	51.9	70	42.4	1	4	292	0.00	30.209 
16:45	51.9	51.9	51.9	70	42.4	2	4	315	0.00	30.214 
16:50	51.7	51.7	51.7	71	42.6	2	4	315	0.00	30.216 
16:55	51.6	51.6	51.6	71	42.5	1	3	315	0.00	30.221 
17:00	51.6	51.6	51.6	72	42.9	1	3	315	0.00	30.228 
17:05	51.3	51.3	51.3	72	42.6	3	5	315	0.00	30.231 
17:10	51.0	51.0	51.0	73	42.7	2	4	292	0.00	30.232 
17:15	50.8	50.8	50.8	73	42.5	2	7	270	0.00	30.236 
17:20	50.7	50.7	50.7	73	42.4	1	3	315	0.00	30.238 
17:25	50.7	50.7	50.7	73	42.4	1	3	315	0.00	30.241 
17:30	50.7	50.7	50.7	73	42.4	1	6	292	0.00	30.245 
17:35	50.7	50.7	50.7	72	42.0	1	3	315	0.00	30.245 
17:40	50.7	50.7	50.7	72	42.0	1	4	292	0.00	30.247 
17:45	50.5	50.5	50.5	73	42.2	1	3	315	0.00	30.248 
17:50	50.5	50.5	50.5	72	41.8	1	3	315	0.00	30.250 
17:55	50.5	50.5	50.5	72	41.8	1	4	315	0.00	30.256 
18:00	50.5	50.5	50.5	72	41.8	2	5	315	0.00	30.260 
18:05	50.4	50.4	50.4	72	41.7	2	4	292	0.00	30.264 
18:10	50.4	50.4	50.4	72	41.7	1	4	292	0.00	30.267 
18:15	50.4	50.4	50.4	71	41.4	1	4	292	0.00	30.268 
18:20	50.2	50.2	50.2	71	41.2	1	2	315	0.00	30.274 
18:25	50.1	50.1	50.1	70	40.7	0	2	338	0.00	30.279 
18:30	49.9	49.9	49.9	69	40.1	1	4	338	0.00	30.280 
18:35	49.8	49.8	49.8	70	40.4	0	3	292	0.00	30.282 
18:40	49.6	49.6	49.6	70	40.2	0	2	315	0.00	30.287 
18:45	49.5	49.5	49.5	69	39.8	1	4	270	0.00	30.293 
18:50	49.2	49.2	49.2	69	39.5	1	5	292	0.00	30.295 
18:55	48.9	48.9	48.9	69	39.2	1	3	292	0.00	30.297 
19:00	48.8	48.8	48.8	69	39.1	1	2	292	0.00	30.300 
19:05	48.5	48.5	48.5	69	38.8	0	2	292	0.00	30.306 
19:10	48.2	48.2	48.2	69	38.5	1	3	292	0.00	30.310 
19:15	48.0	48.0	48.0	69	38.3	0	1	315	0.00	30.312 
19:20	47.7	47.7	47.7	70	38.4	0	3	315	0.00	30.314 
19:25	47.6	47.6	47.6	70	38.3	0	2	315	0.00	30.317 
19:30	47.4	47.4	47.4	69	37.7	1	3	315	0.00	30.323 
19:35	47.3	47.3	47.3	69	37.7	1	3	292	0.00	30.327 
19:40	47.1	47.1	47.1	70	37.8	0	2	292	0.00	30.328 
19:45	46.8	46.8	46.8	70	37.5	0	1	292	0.00	30.331 
19:50	46.7	46.7	46.7	71	37.8	0	2	292	0.00	30.334 
19:55	46.4	46.4	46.4	71	37.5	0	2	292	0.00	30.339 
20:00	46.4	46.4	46.4	71	37.5	0	1	292	0.00	30.341 
20:05	46.1	46.1	46.1	71	37.2	0	1	292	0.00	30.341 
20:10	45.8	45.8	45.8	72	37.3	0	1	292	0.00	30.344 
20:15	45.7	45.7	45.7	72	37.2	0	1	292	0.00	30.346 
20:20	45.7	45.7	45.7	72	37.2	0	1	292	0.00	30.351 
20:25	45.4	45.4	45.4	73	37.3	0	1	292	0.00	30.357 
20:30	45.1	45.1	45.1	73	37.0	0	1	292	0.00	30.361 
20:35	44.9	44.9	44.9	73	36.8	0	0	---	0.00	30.362 
20:40	44.6	44.6	44.6	74	36.8	0	1	292	0.00	30.362 
20:45	44.3	44.3	44.3	75	36.9	0	1	292	0.00	30.364 
20:50	44.1	44.1	44.1	76	37.0	0	0	---	0.00	30.365 
20:55	43.9	43.9	43.9	76	36.8	0	0	---	0.00	30.368 
21:00	43.5	43.5	43.5	77	36.8	0	0	---	0.00	30.374 
21:05	43.2	43.2	43.2	78	36.8	0	0	---	0.00	30.377 
21:10	42.8	42.8	42.8	78	36.4	0	0	---	0.00	30.377 
21:15	42.6	42.6	42.6	79	36.6	0	0	---	0.00	30.378 
21:20	42.3	42.3	42.3	80	36.6	0	0	---	0.00	30.379 
21:25	42.1	42.1	42.1	80	36.4	0	0	---	0.00	30.382 
21:30	41.8	41.8	41.8	81	36.4	0	0	---	0.00	30.383 
21:35	41.5	41.5	41.5	82	36.4	0	0	---	0.00	30.383 
21:40	41.1	41.1	41.1	83	36.3	0	0	---	0.00	30.384 
21:45	40.8	40.8	40.8	84	36.3	0	0	---	0.00	30.386 
21:50	40.5	40.5	40.5	84	36.1	0	0	---	0.00	30.388 
21:55	40.2	40.2	40.2	85	36.1	0	0	---	0.00	30.394 
22:00	39.9	39.9	39.9	86	36.1	0	0	---	0.00	30.396 
22:05	39.8	39.8	39.8	86	36.0	0	0	---	0.00	30.395 
22:10	39.5	39.5	39.5	87	36.0	0	0	---	0.00	30.396 
22:15	39.3	39.3	39.3	87	35.8	0	0	---	0.00	30.396 
22:20	39.2	39.2	39.2	88	35.9	0	0	---	0.00	30.397 
22:25	38.9	38.9	38.9	88	35.7	0	0	---	0.00	30.399 
22:30	38.8	38.8	38.8	88	35.6	0	0	---	0.00	30.401 
22:35	38.6	38.6	38.6	88	35.4	0	0	---	0.00	30.401 
22:40	38.5	38.5	38.5	89	35.5	0	0	---	0.00	30.403 
22:45	38.3	38.3	38.3	89	35.3	0	0	---	0.00	30.408 
22:50	38.2	38.2	38.2	89	35.2	0	0	---	0.00	30.410 
22:55	38.0	38.0	38.0	89	35.1	0	0	---	0.00	30.409 
23:00	37.9	37.9	37.9	89	35.0	0	0	---	0.00	30.412 
23:05	37.6	37.6	37.6	90	34.9	0	0	---	0.00	30.412 
23:10	37.5	37.5	37.5	90	34.8	0	0	---	0.00	30.411 
23:15	37.2	37.2	37.2	90	34.5	0	1	292	0.00	30.412 
23:20	36.9	36.9	36.9	90	34.2	0	0	---	0.00	30.412 
23:25	36.8	36.8	36.8	91	34.4	0	0	---	0.00	30.413 
23:30	36.6	36.6	36.6	91	34.2	0	1	292	0.00	30.412 
23:35	36.5	36.5	36.5	91	34.1	0	0	---	0.00	30.412 
23:40	36.2	36.2	36.2	91	33.8	0	0	---	0.00	30.413 
23:45	36.0	36.0	36.0	91	33.6	0	0	---	0.00	30.413 
23:50	35.9	35.9	35.9	92	33.8	0	0	---	0.00	30.414 
23:55	35.8	35.8	35.8	92	33.7	0	0	---	0.00	30.415 

CoCoRaHS
IN-AL-39
A2 Web Hosting
Creative Commons License
GoDaddy
Look for:

loaded 2017-10-17 22:38:20 • last modified 2010-11-18 10:43:29
Privacy PolicyDisclaimer
• wx.awcolley.com is powered by PmWiki v.2002016 •
• all content (unless otherwise noted) © 2017 A W Colley